Sand Point Airport (SDP/PASD)




Flight Aircraft Arriving
GRZ5375 SF34
PACD - Cold Bay Airport
United StatesAlaska Cold Bay, Alaska
Flight Aircraft Departing
GRZ5374 SF34
PACD - Cold Bay Airport
United StatesAlaska Cold Bay, Alaska
Airport Information
Location: Sand Point, US
Coordinates: 55.3137 / -160.521
Elevation:
Time Offset:
Local Time:
UTC Time:
Jet A Price: $0.91/lbs

Current Weather
METAR: PASD 050656Z AUTO 32003KT 10SM BKN021 OVC039 04/03 A3017 RMK AO2 SLP220 T00390028
TAF: PASD 050533Z 0506/0606 25009KT P6SM VCSH OVC015 TEMPO 0506/0510 -SHRA OVC009 FM051000 28010KT P6SM BKN025 FM051200 30010KT P6SM BKN050 FM052000 31014G20KT P6SM BKN050

Recent Arrivals
Date Flight Type Depart
Recent Departures
Date Flight Type Arrive